Time;durP1;ratioP1;P1;durP2;ratioP2;P2;SDS_P1;SDS_P2;PMS_P1;PMS_P2;Temp;Humidity;BMP_temperature;BMP_pressure;BME280_temperature;BME280_humidity;BME280_pressure;Samples;Min_cycle;Max_cycle;Signal;HPM_P1;HPM_P2
2023/01/15 00:05:02;;;;;;;44.73;17.23;;;4.50;99.90;;;2.14;100.00;100434.50;10430396;28;20065;-79
2023/01/15 00:10:06;;;;;;;38.20;16.10;;;4.50;99.90;;;2.10;100.00;100433.06;10457965;28;20124;-79
2023/01/15 00:15:09;;;;;;;36.20;16.57;;;4.50;99.90;;;2.10;100.00;100424.38;10419243;28;20057;-78
2023/01/15 00:20:15;;;;;;;34.87;13.70;;;4.50;99.90;;;2.11;100.00;100423.41;10419595;28;20062;-79
2023/01/15 00:30:41;;;;;;;39.45;14.93;;;4.50;99.90;;;2.07;100.00;100429.81;10436151;28;20058;-79
2023/01/15 00:35:44;;;;;;;34.67;14.10;;;4.50;99.90;;;2.05;100.00;100416.81;10471214;28;20054;-79
2023/01/15 00:40:51;;;;;;;42.03;16.90;;;4.40;99.90;;;1.99;100.00;100409.41;10456781;28;20069;-79
2023/01/15 00:45:54;;;;;;;35.37;14.53;;;4.40;99.90;;;1.97;100.00;100406.03;10436840;28;20444;-79
2023/01/15 00:50:57;;;;;;;36.37;14.20;;;4.40;99.90;;;1.98;100.00;100412.09;10455412;28;20057;-79
2023/01/15 00:56:00;;;;;;;37.23;14.63;;;4.30;99.90;;;1.94;100.00;100414.13;10461469;28;20049;-79
2023/01/15 01:01:03;;;;;;;29.70;13.67;;;4.30;99.90;;;1.93;100.00;100401.97;10441972;28;20068;-79
2023/01/15 01:06:09;;;;;;;34.07;13.37;;;4.30;99.90;;;1.85;100.00;100392.00;10481598;28;20465;-79
2023/01/15 01:11:18;;;;;;;35.27;12.80;;;4.30;99.90;;;1.86;100.00;100400.72;10418134;28;20446;-79
2023/01/15 01:16:24;;;;;;;37.30;13.73;;;4.30;99.90;;;1.85;100.00;100397.22;10405394;28;20157;-79
2023/01/15 01:21:28;;;;;;;36.07;13.20;;;4.20;99.90;;;1.84;100.00;100394.72;10426286;28;20061;-79
2023/01/15 01:26:31;;;;;;;37.23;13.07;;;4.20;99.90;;;1.81;100.00;100376.63;10445833;28;20411;-79
2023/01/15 01:31:34;;;;;;;33.63;13.63;;;4.20;99.90;;;1.79;100.00;100374.09;10445059;28;20062;-79
2023/01/15 01:36:40;;;;;;;35.80;13.00;;;4.10;99.90;;;1.76;100.00;100370.84;10460162;28;20079;-79
2023/01/15 01:41:46;;;;;;;35.07;13.00;;;4.10;99.90;;;1.74;100.00;100370.97;10445009;28;20061;-79
2023/01/15 01:46:49;;;;;;;33.47;13.30;;;4.10;99.90;;;1.72;100.00;100354.50;10443368;28;20057;-79
2023/01/15 01:52:15;;;;;;;32.53;13.40;;;4.10;99.90;;;1.71;100.00;100352.84;10444496;28;20061;-79
2023/01/15 01:57:20;;;;;;;30.67;12.43;;;4.10;99.90;;;1.67;100.00;100346.13;10428699;28;20422;-79
2023/01/15 02:02:23;;;;;;;30.73;12.17;;;4.10;99.90;;;1.65;100.00;100344.56;10421715;28;20084;-79
2023/01/15 02:07:26;;;;;;;33.60;11.67;;;4.10;99.90;;;1.65;100.00;100336.72;10441568;28;20065;-80
2023/01/15 02:12:36;;;;;;;26.43;11.13;;;4.10;99.90;;;1.66;100.00;100336.59;10448229;28;20065;-79
2023/01/15 02:18:27;;;;;;;28.10;12.27;;;4.10;99.90;;;1.67;100.00;100337.44;10428566;28;20065;-80
2023/01/15 02:24:05;;;;;;;30.70;10.60;;;4.10;99.90;;;1.67;100.00;100316.47;10405700;28;20068;-79
2023/01/15 02:29:16;;;;;;;26.57;10.63;;;4.10;99.90;;;1.65;100.00;100308.72;10435436;28;20071;-79
2023/01/15 02:34:28;;;;;;;25.15;8.20;;;4.10;99.90;;;1.59;100.00;100301.31;10461516;28;20057;-79
2023/01/15 02:39:34;;;;;;;24.03;11.27;;;4.00;99.90;;;1.57;100.00;100292.72;10433531;28;20061;-79
2023/01/15 02:44:45;;;;;;;28.23;10.97;;;3.90;99.90;;;1.54;100.00;100295.53;10452585;28;20126;-78
2023/01/15 02:49:50;;;;;;;24.13;10.32;;;3.90;99.90;;;1.56;100.00;100293.66;10442826;28;20061;-78
2023/01/15 02:55:11;;;;;;;27.87;11.00;;;3.90;99.90;;;1.54;100.00;100293.75;10460241;28;20064;-78
2023/01/15 03:00:18;;;;;;;29.03;10.93;;;4.00;99.90;;;1.52;100.00;100282.56;10447615;28;20414;-78
2023/01/15 03:05:30;;;;;;;27.60;10.77;;;3.90;99.90;;;1.51;100.00;100280.91;10449613;28;20064;-79
2023/01/15 03:11:12;;;;;;;23.43;10.17;;;3.90;99.90;;;1.52;100.00;100277.31;10429194;28;20088;-79
2023/01/15 03:16:39;;;;;;;26.13;11.07;;;3.90;99.90;;;1.52;100.00;100281.72;10495515;28;20064;-79
2023/01/15 03:22:01;;;;;;;28.60;10.43;;;3.90;99.90;;;1.51;100.00;100277.44;10457932;28;20601;-79
2023/01/15 03:27:05;;;;;;;30.47;11.13;;;3.90;99.90;;;1.47;100.00;100273.34;10434352;28;20116;-79
2023/01/15 03:32:09;;;;;;;26.10;11.93;;;3.90;99.90;;;1.45;100.00;100273.47;10478391;28;20080;-79
2023/01/15 03:37:12;;;;;;;29.77;11.23;;;3.80;99.90;;;1.45;100.00;100270.03;10464615;28;20068;-79
2023/01/15 03:42:43;;;;;;;24.50;10.90;;;3.80;99.90;;;1.45;100.00;100259.53;10475357;28;20152;-79
2023/01/15 03:48:20;;;;;;;22.50;9.50;;;3.80;99.90;;;1.44;100.00;100257.84;10464970;28;20093;-79
2023/01/15 03:53:28;;;;;;;24.60;10.33;;;3.80;99.90;;;1.46;100.00;100266.44;10483326;28;20515;-79
2023/01/15 03:58:52;;;;;;;26.50;11.50;;;3.80;99.90;;;1.44;100.00;100269.19;10486350;28;20061;-79
2023/01/15 04:03:56;;;;;;;28.57;10.60;;;3.80;99.90;;;1.42;100.00;100263.19;10469645;28;20084;-79
2023/01/15 04:09:02;;;;;;;21.73;9.63;;;3.80;99.90;;;1.41;100.00;100271.16;10481964;28;20503;-79
2023/01/15 04:14:05;;;;;;;20.00;9.27;;;3.80;99.90;;;1.37;100.00;100262.69;10444704;28;20065;-80
2023/01/15 04:19:08;;;;;;;23.33;9.73;;;3.80;99.90;;;1.34;100.00;100255.88;10431411;28;20152;-79
2023/01/15 04:24:11;;;;;;;25.37;10.87;;;3.80;99.90;;;1.27;100.00;100235.50;10428176;28;20061;-80
2023/01/15 04:29:14;;;;;;;25.53;10.47;;;3.70;99.90;;;1.26;100.00;100232.03;10451545;28;20498;-79
2023/01/15 04:34:18;;;;;;;24.07;10.67;;;3.70;99.90;;;1.27;100.00;100244.19;10464611;28;20061;-79
2023/01/15 04:39:21;;;;;;;23.80;9.63;;;3.70;99.90;;;1.26;100.00;100239.91;10494830;28;20061;-80
2023/01/15 04:44:26;;;;;;;26.50;10.73;;;3.70;99.90;;;1.23;100.00;100232.25;10470571;28;20065;-79
2023/01/15 04:49:29;;;;;;;19.93;9.13;;;3.70;99.90;;;1.22;100.00;100242.81;10455143;28;20062;-79
2023/01/15 04:54:32;;;;;;;24.40;10.20;;;3.60;99.90;;;1.18;100.00;100238.75;10447107;28;20064;-79
2023/01/15 04:59:35;;;;;;;23.60;10.13;;;3.60;99.90;;;1.16;100.00;100244.09;10471980;28;20072;-79
2023/01/15 05:04:38;;;;;;;23.23;10.03;;;3.50;99.90;;;1.16;100.00;100228.38;10430622;28;20145;-79
2023/01/15 05:09:41;;;;;;;21.17;8.83;;;3.60;99.90;;;1.18;100.00;100236.13;10458771;28;20058;-79
2023/01/15 05:14:45;;;;;;;27.40;11.17;;;3.60;99.90;;;1.16;100.00;100217.91;10470166;28;20077;-79
2023/01/15 05:19:48;;;;;;;22.83;10.27;;;3.60;99.90;;;1.18;100.00;100226.47;10414114;28;20066;-79
2023/01/15 05:24:50;;;;;;;25.17;10.57;;;3.60;99.90;;;1.16;100.00;100217.91;10477135;28;20068;-79
2023/01/15 05:29:53;;;;;;;24.57;10.23;;;3.60;99.90;;;1.14;100.00;100198.88;10438025;28;20077;-79
2023/01/15 05:34:56;;;;;;;24.93;10.47;;;3.50;99.90;;;1.17;100.00;100197.81;10454149;28;20577;-79
2023/01/15 05:39:59;;;;;;;24.63;10.77;;;3.50;99.90;;;1.17;100.00;100201.25;10470080;28;20527;-79
2023/01/15 05:45:03;;;;;;;19.13;9.03;;;3.60;99.90;;;1.18;100.00;100192.47;10478703;28;20061;-79
2023/01/15 05:50:06;;;;;;;21.67;9.57;;;3.60;99.90;;;1.19;100.00;100178.41;10446486;28;20091;-79
2023/01/15 05:55:09;;;;;;;21.43;9.83;;;3.60;99.90;;;1.21;100.00;100171.31;10444052;28;20545;-79
2023/01/15 06:00:13;;;;;;;26.23;9.83;;;3.60;99.90;;;1.18;100.00;100166.28;10425959;28;20073;-79
2023/01/15 06:05:19;;;;;;;21.83;9.33;;;3.60;99.90;;;1.17;100.00;100167.22;10443087;28;20065;-79
2023/01/15 06:10:22;;;;;;;23.70;10.10;;;3.60;99.90;;;1.18;100.00;100168.91;10471164;28;20484;-79
2023/01/15 06:15:25;;;;;;;23.63;10.17;;;3.50;99.90;;;1.18;100.00;100166.28;10494125;28;20108;-79
2023/01/15 06:20:29;;;;;;;29.10;10.17;;;3.50;99.90;;;1.20;100.00;100168.78;10421288;28;20068;-79
2023/01/15 06:25:36;;;;;;;22.80;9.80;;;3.60;99.90;;;1.23;100.00;100173.81;10452257;28;20064;-79
2023/01/15 06:30:39;;;;;;;26.80;11.33;;;3.60;99.90;;;1.24;100.00;100165.84;10421731;28;20070;-79
2023/01/15 06:35:42;;;;;;;24.13;9.63;;;3.60;99.90;;;1.26;100.00;100163.97;10451994;28;20573;-79
2023/01/15 06:40:45;;;;;;;23.97;10.07;;;3.70;99.90;;;1.26;100.00;100150.88;10427412;28;20055;-79
2023/01/15 06:51:13;;;;;;;25.10;9.95;;;3.70;99.90;;;1.36;100.00;100164.13;10439638;28;20471;-79
2023/01/15 06:56:16;;;;;;;19.97;9.30;;;3.70;99.90;;;1.33;100.00;100154.72;10452506;28;20057;-81
2023/01/15 07:01:19;;;;;;;18.97;9.13;;;3.80;99.90;;;1.39;100.00;100155.25;10428466;28;20065;-81
2023/01/15 07:06:22;;;;;;;23.40;10.33;;;3.80;99.90;;;1.40;100.00;100144.66;10463705;28;20112;-81
2023/01/15 07:11:28;;;;;;;34.70;15.97;;;3.80;99.90;;;1.45;100.00;100150.41;10432672;28;20061;-80
2023/01/15 07:16:36;;;;;;;26.87;11.73;;;3.80;99.90;;;1.51;100.00;100143.88;10430152;28;20577;-79
2023/01/15 07:21:39;;;;;;;29.80;12.23;;;3.90;99.90;;;1.56;100.00;100146.97;10449852;28;20062;-79
2023/01/15 07:26:44;;;;;;;29.23;12.47;;;3.90;99.90;;;1.63;100.00;100147.41;10448540;28;20096;-79
2023/01/15 07:31:48;;;;;;;36.63;13.30;;;4.00;99.90;;;1.67;100.00;100141.78;10459032;28;20064;-79
2023/01/15 07:36:51;;;;;;;23.10;10.17;;;4.10;99.90;;;1.73;100.00;100141.34;10437474;28;20060;-79
2023/01/15 07:52:45;;;;;;;18.80;8.93;;;4.30;99.90;;;1.93;100.00;100128.56;10442543;28;20088;-79
2023/01/15 07:57:48;;;;;;;22.07;9.60;;;4.40;99.90;;;1.99;100.00;100123.72;10450271;28;20080;-79
2023/01/15 08:02:51;;;;;;;19.60;8.93;;;4.40;99.90;;;2.04;100.00;100118.97;10443668;28;20061;-80
2023/01/15 08:07:54;;;;;;;19.60;9.67;;;4.50;99.90;;;2.15;100.00;100110.25;10440028;28;20066;-79
2023/01/15 08:18:18;;;;;;;23.10;11.03;;;4.60;99.90;;;2.27;100.00;100109.31;10464314;28;20065;-78
2023/01/15 08:23:21;;;;;;;37.10;15.73;;;4.70;99.90;;;2.31;100.00;100105.53;10442504;28;20156;-78
2023/01/15 08:28:24;;;;;;;43.07;17.73;;;4.70;99.90;;;2.42;100.00;100112.59;10458665;28;20060;-78
2023/01/15 08:33:27;;;;;;;24.13;11.27;;;4.80;99.90;;;2.48;100.00;100113.91;10436150;28;20145;-78
2023/01/15 08:38:30;;;;;;;68.03;22.83;;;4.90;99.90;;;2.54;100.00;100110.81;10461696;28;20514;-78
2023/01/15 08:43:33;;;;;;;57.53;21.43;;;4.90;99.90;;;2.61;100.00;100110.19;10448910;28;20403;-78
2023/01/15 08:48:36;;;;;;;61.60;23.13;;;5.10;99.90;;;2.72;100.00;100104.13;10462693;28;20080;-78
2023/01/15 08:53:39;;;;;;;55.00;19.20;;;5.10;99.90;;;2.85;100.00;100104.00;10488608;28;20533;-77
2023/01/15 08:58:45;;;;;;;39.30;20.97;;;5.20;99.90;;;2.93;100.00;100091.91;10499338;28;20068;-78
2023/01/15 09:03:49;;;;;;;28.83;14.60;;;5.40;99.90;;;3.07;100.00;100082.97;10433800;28;20061;-77
2023/01/15 09:08:52;;;;;;;27.07;13.70;;;5.40;99.90;;;3.18;100.00;100080.31;10435699;28;20057;-78
2023/01/15 09:13:55;;;;;;;26.40;13.07;;;5.60;99.90;;;3.29;100.00;100071.56;10447163;28;20064;-78
2023/01/15 09:18:58;;;;;;;145.93;59.20;;;5.70;99.90;;;3.37;100.00;100056.03;10455950;28;20507;-78
2023/01/15 09:24:01;;;;;;;29.80;16.23;;;5.70;99.90;;;3.51;100.00;100043.53;10469698;28;20094;-78
2023/01/15 09:29:07;;;;;;;35.67;16.90;;;5.80;99.90;;;3.66;100.00;100034.41;10464315;28;20072;-77
2023/01/15 09:34:10;;;;;;;35.33;21.93;;;6.00;99.90;;;3.80;100.00;100033.25;10464263;28;20057;-78
2023/01/15 09:39:13;;;;;;;35.33;18.70;;;6.10;99.90;;;3.92;100.00;100021.69;10493346;28;20067;-78
2023/01/15 09:44:56;;;;;;;24.27;15.10;;;6.30;99.90;;;4.10;100.00;100000.91;10467609;28;20065;-78
2023/01/15 09:50:33;;;;;;;21.77;13.90;;;6.40;99.90;;;4.33;100.00;99993.66;10476410;28;20333;-78
2023/01/15 09:55:46;;;;;;;21.30;11.90;;;6.60;99.90;;;4.61;100.00;99976.28;10447089;28;20178;-78
2023/01/15 10:00:51;;;;;;;15.23;9.83;;;6.90;99.90;;;4.78;100.00;99973.00;10455324;28;20389;-78
2023/01/15 10:06:09;;;;;;;21.70;12.60;;;7.10;99.90;;;4.82;100.00;99974.41;10461642;28;20460;-77
2023/01/15 10:11:15;;;;;;;18.40;10.47;;;7.20;99.90;;;4.74;100.00;99955.81;10469079;28;20061;-78
2023/01/15 10:16:28;;;;;;;15.97;8.80;;;7.10;99.90;;;4.77;100.00;99939.75;10441670;28;20107;-78
2023/01/15 10:21:57;;;;;;;15.50;9.07;;;7.10;99.90;;;4.86;100.00;99928.41;10451069;28;20057;-78
2023/01/15 10:27:04;;;;;;;15.43;8.47;;;7.20;99.90;;;4.95;100.00;99918.84;10417252;28;20064;-78
2023/01/15 11:31:21;;;;;;;12.43;8.20;;;8.40;99.90;;;6.11;95.27;99800.69;10464372;28;20470;-79
2023/01/15 11:36:27;;;;;;;9.03;5.60;;;8.50;99.90;;;6.23;94.49;99800.50;10441155;28;20145;-79
2023/01/15 11:52:21;;;;;;;;;;;8.60;99.90;;;6.34;91.51;99745.69;10444671;28;20068;-79
2023/01/15 11:57:32;;;;;;;13.57;7.37;;;8.70;99.90;;;6.36;91.23;99724.44;10440335;28;19929;-78
2023/01/15 12:07:47;;;;;;;14.30;7.30;;;8.80;99.90;;;6.41;90.09;99727.44;10438559;28;20061;-79
2023/01/15 12:13:53;;;;;;;12.90;6.90;;;8.80;99.90;;;6.49;90.17;99727.50;10469673;28;20457;-77
2023/01/15 12:20:01;;;;;;;12.07;6.70;;;8.90;99.90;;;6.53;89.36;99720.94;10444011;28;20089;-78
2023/01/15 12:25:18;;;;;;;14.23;6.97;;;8.90;99.90;;;6.50;88.61;99715.97;10439091;28;20057;-78
2023/01/15 12:30:41;;;;;;;13.90;6.70;;;8.90;99.90;;;6.47;87.96;99704.88;10447263;28;20061;-78
2023/01/15 12:35:55;;;;;;;11.60;6.47;;;8.90;99.90;;;6.44;87.75;99706.84;10444361;28;20057;-78
2023/01/15 12:41:09;;;;;;;19.60;9.20;;;8.80;99.90;;;6.42;87.53;99702.72;10462237;28;20057;-78
2023/01/15 12:46:23;;;;;;;41.97;15.63;;;8.80;99.90;;;6.40;87.62;99699.38;10448192;28;20065;-79
2023/01/15 12:51:52;;;;;;;29.90;12.53;;;8.80;99.90;;;6.33;87.40;99698.34;10421662;28;20509;-79
2023/01/15 12:57:17;;;;;;;19.17;9.97;;;8.70;99.90;;;6.27;87.52;99681.31;10434940;28;20494;-79
2023/01/15 13:02:27;;;;;;;20.10;8.67;;;8.70;99.90;;;6.25;87.79;99672.72;10428781;28;20140;-79
2023/01/15 13:07:48;;;;;;;14.53;8.50;;;8.60;99.90;;;6.25;88.23;99667.44;10462684;28;20061;-78
2023/01/15 13:12:54;;;;;;;17.67;9.00;;;8.60;99.90;;;6.29;88.41;99662.69;10442815;28;20065;-79
2023/01/15 13:18:34;;;;;;;14.77;7.97;;;8.70;99.90;;;6.32;88.68;99665.03;10425224;28;20072;-78
2023/01/15 13:24:06;;;;;;;20.00;9.23;;;8.70;99.90;;;6.31;89.00;99664.19;10471304;28;20061;-79
2023/01/15 13:29:21;;;;;;;;;;;8.70;99.90;;;6.31;88.69;99658.94;10429339;28;20112;-78
2023/01/15 13:34:48;;;;;;;16.87;8.77;;;8.70;99.90;;;6.25;88.96;99654.25;10477218;28;19936;-78
2023/01/15 13:40:21;;;;;;;19.60;10.80;;;8.60;99.90;;;6.17;88.72;99657.63;10463003;28;20115;-78
2023/01/15 13:45:39;;;;;;;22.30;10.70;;;8.60;99.90;;;6.13;89.01;99639.66;10430505;28;20423;-79
2023/01/15 13:50:58;;;;;;;18.97;9.43;;;8.50;99.90;;;6.07;89.29;99643.72;10426434;28;20069;-78
2023/01/15 13:56:13;;;;;;;20.33;11.30;;;8.50;99.90;;;6.06;90.32;99626.25;10413417;28;20172;-78
2023/01/15 14:01:16;;;;;;;24.70;13.40;;;8.40;99.90;;;6.00;90.22;99621.59;10438954;28;20416;-77
2023/01/15 14:06:19;;;;;;;21.50;12.07;;;8.40;99.90;;;5.92;90.47;99623.31;10459043;28;20061;-78
2023/01/15 14:11:34;;;;;;;43.37;21.43;;;8.30;99.90;;;5.90;91.07;99626.06;10451294;28;20061;-79
2023/01/15 14:17:07;;;;;;;28.00;12.97;;;8.30;99.90;;;5.87;91.59;99615.81;10456940;28;20057;-81
2023/01/15 14:22:43;;;;;;;17.20;9.07;;;8.30;99.90;;;5.83;92.15;99617.94;10439609;28;20422;-83
2023/01/15 14:28:04;;;;;;;18.67;10.10;;;8.20;99.90;;;5.78;92.03;99616.75;10442341;28;20063;-80
2023/01/15 14:33:36;;;;;;;22.20;11.00;;;8.20;99.90;;;5.74;92.59;99618.84;10458122;28;20088;-79
2023/01/15 14:38:55;;;;;;;23.17;10.33;;;8.10;99.90;;;5.69;93.04;99604.44;10474261;28;20058;-79
2023/01/15 14:44:02;;;;;;;20.40;10.73;;;8.10;99.90;;;5.64;93.70;99608.38;10417152;28;20071;-79
2023/01/15 14:49:27;;;;;;;22.97;11.07;;;8.00;99.90;;;5.60;94.18;99611.47;10457038;28;20057;-79
2023/01/15 14:54:31;;;;;;;23.63;12.47;;;7.90;99.90;;;5.52;94.44;99606.94;10442041;28;20148;-79
2023/01/15 14:59:55;;;;;;;23.87;13.00;;;7.90;99.90;;;5.48;94.89;99613.50;10440683;28;20059;-79
2023/01/15 15:05:00;;;;;;;20.53;10.50;;;7.80;99.90;;;5.44;95.42;99606.03;10474546;28;20127;-79
2023/01/15 15:10:25;;;;;;;22.27;11.80;;;7.80;99.90;;;5.40;95.71;99599.38;10474593;28;20061;-79
2023/01/15 15:15:53;;;;;;;22.70;10.00;;;7.70;99.90;;;5.36;96.21;99583.91;10471580;28;20422;-79
2023/01/15 15:21:05;;;;;;;32.20;14.10;;;7.70;99.90;;;5.31;96.21;99572.16;10453385;28;20066;-79
2023/01/15 15:26:31;;;;;;;37.50;16.67;;;7.70;99.90;;;5.29;96.44;99568.84;10456823;28;20104;-79
2023/01/15 15:32:00;;;;;;;37.67;17.17;;;7.70;99.90;;;5.25;96.60;99560.41;10424014;28;20577;-79
2023/01/15 15:37:22;;;;;;;35.63;14.87;;;7.60;99.90;;;5.23;96.80;99556.28;10460342;28;20058;-80
2023/01/15 15:48:41;;;;;;;29.37;13.57;;;7.60;99.90;;;5.21;97.49;99550.31;10464872;28;20057;-79
2023/01/15 15:53:44;;;;;;;30.43;13.07;;;7.60;99.90;;;5.19;97.83;99557.53;10448132;28;20093;-78
2023/01/15 15:58:47;;;;;;;29.17;13.63;;;7.60;99.90;;;5.18;98.18;99553.25;10422633;28;20471;-79
2023/01/15 16:03:50;;;;;;;34.07;14.20;;;7.60;99.90;;;5.18;98.43;99561.16;10473948;28;20057;-79
2023/01/15 16:09:03;;;;;;;21.03;10.73;;;7.60;99.90;;;5.17;98.92;99556.88;10432073;28;20088;-79
2023/01/15 16:14:11;;;;;;;32.30;15.40;;;7.60;99.90;;;5.15;99.29;99548.25;10479540;28;20107;-79
2023/01/15 16:19:24;;;;;;;42.20;17.80;;;7.50;99.90;;;5.13;99.40;99555.50;10476929;28;20136;-79
2023/01/15 16:24:28;;;;;;;39.27;19.20;;;7.50;99.90;;;5.09;99.78;99553.13;10443619;28;20072;-78
2023/01/15 16:29:33;;;;;;;46.43;18.77;;;7.50;99.90;;;5.08;99.75;99553.28;10441126;28;20063;-79
2023/01/15 16:34:37;;;;;;;36.23;16.90;;;7.40;99.90;;;5.04;100.00;99554.59;10447491;28;20434;-79
2023/01/15 16:39:45;;;;;;;35.07;18.00;;;7.40;99.90;;;5.00;100.00;99561.13;10472708;28;20061;-79
2023/01/15 16:45:23;;;;;;;39.43;18.13;;;7.40;99.90;;;4.99;100.00;99555.03;10435419;28;20066;-79
2023/01/15 16:50:31;;;;;;;27.20;14.27;;;7.40;99.90;;;4.95;100.00;99545.75;10435624;28;20533;-79
2023/01/15 16:55:39;;;;;;;41.87;18.43;;;7.30;99.90;;;4.92;100.00;99551.34;10462632;28;20092;-79
2023/01/15 17:00:49;;;;;;;38.83;17.17;;;7.30;99.90;;;4.87;100.00;99540.41;10462704;28;20568;-79
2023/01/15 17:06:02;;;;;;;30.27;13.60;;;7.20;99.90;;;4.80;100.00;99537.53;10462254;28;20065;-79
2023/01/15 17:11:23;;;;;;;38.63;19.03;;;7.20;99.90;;;4.77;100.00;99532.56;10445525;28;20068;-79
2023/01/15 17:16:26;;;;;;;34.53;16.90;;;7.10;99.90;;;4.73;100.00;99530.34;10441434;28;20156;-79
2023/01/15 17:21:29;;;;;;;37.83;18.33;;;7.10;99.90;;;4.68;100.00;99522.06;10446471;28;20541;-79
2023/01/15 17:26:32;;;;;;;41.53;18.70;;;7.00;99.90;;;4.64;100.00;99518.09;10460719;28;20065;-79
2023/01/15 17:31:35;;;;;;;38.50;18.50;;;7.00;99.90;;;4.61;100.00;99529.72;10425471;28;20141;-78
2023/01/15 17:36:38;;;;;;;42.37;19.63;;;7.00;99.90;;;4.56;100.00;99532.00;10429456;28;20151;-79
2023/01/15 17:41:41;;;;;;;46.60;20.83;;;6.90;99.90;;;4.52;100.00;99536.69;10458130;28;20160;-79
2023/01/15 17:46:45;;;;;;;44.60;18.93;;;6.90;99.90;;;4.53;100.00;99521.75;10440267;28;20439;-79
2023/01/15 17:51:48;;;;;;;39.40;19.87;;;6.90;99.90;;;4.49;100.00;99533.53;10437964;28;20188;-79
2023/01/15 18:07:41;;;;;;;40.33;20.17;;;6.70;99.90;;;4.44;100.00;99530.53;10457316;28;20057;-80
2023/01/15 18:12:44;;;;;;;48.70;20.53;;;6.80;99.90;;;4.43;100.00;99539.34;10447383;28;20081;-79
2023/01/15 18:17:47;;;;;;;38.10;18.27;;;6.70;99.90;;;4.44;100.00;99523.44;10466719;28;20057;-79
2023/01/15 18:22:50;;;;;;;51.17;22.70;;;6.80;99.90;;;4.45;100.00;99521.66;10460069;28;20071;-79
2023/01/15 18:27:53;;;;;;;61.97;27.23;;;6.70;99.90;;;4.45;100.00;99527.72;10473421;28;20112;-79
2023/01/15 18:32:57;;;;;;;52.03;26.23;;;6.80;99.90;;;4.46;100.00;99518.88;10434407;28;20869;-79
2023/01/15 18:38:00;;;;;;;55.57;25.80;;;6.80;99.90;;;4.44;100.00;99523.44;10457745;28;20061;-79
2023/01/15 18:48:25;;;;;;;53.23;26.03;;;6.70;99.90;;;4.37;100.00;99538.13;10458250;28;20131;-80
2023/01/15 18:53:27;;;;;;;51.30;23.20;;;6.70;99.90;;;4.31;100.00;99528.19;10444609;28;20507;-80
2023/01/15 18:58:30;;;;;;;41.37;19.10;;;6.60;99.90;;;4.33;100.00;99536.78;10459948;28;20057;-80
2023/01/15 19:03:33;;;;;;;46.67;21.83;;;6.60;99.90;;;4.31;100.00;99530.81;10441804;28;20522;-81
2023/01/15 19:08:36;;;;;;;52.17;23.50;;;6.60;99.90;;;4.31;100.00;99522.94;10427147;28;20053;-81
2023/01/15 19:13:39;;;;;;;55.87;25.70;;;6.60;99.90;;;4.29;100.00;99524.88;10444664;28;20060;-81
2023/01/15 19:18:52;;;;;;;57.93;28.03;;;6.60;99.90;;;4.26;100.00;99527.81;10442848;28;20148;-81
2023/01/15 19:23:55;;;;;;;54.87;26.57;;;6.60;99.90;;;4.28;100.00;99529.31;10451797;28;20231;-81
2023/01/15 19:28:58;;;;;;;77.67;35.73;;;6.60;99.90;;;4.29;100.00;99519.63;10436604;28;20144;-81
2023/01/15 19:34:06;;;;;;;65.80;31.70;;;6.60;99.90;;;4.30;100.00;99516.84;10436663;28;20065;-81
2023/01/15 19:39:29;;;;;;;55.30;28.57;;;6.60;99.90;;;4.33;100.00;99520.19;10452752;28;20629;-81
2023/01/15 19:55:22;;;;;;;51.20;24.37;;;6.70;99.90;;;4.35;100.00;99510.31;10437052;28;20098;-80
2023/01/15 20:00:27;;;;;;;57.33;25.33;;;6.70;99.90;;;4.30;100.00;99506.31;10458854;28;20144;-81
2023/01/15 20:05:31;;;;;;;55.30;26.53;;;6.60;99.90;;;4.29;100.00;99514.38;10456835;28;20061;-81
2023/01/15 20:10:37;;;;;;;56.47;26.40;;;6.60;99.90;;;4.29;100.00;99509.09;10443769;28;20324;-81
2023/01/15 20:15:44;;;;;;;58.67;27.80;;;6.60;99.90;;;4.31;100.00;99496.63;10456617;28;20061;-81
2023/01/15 20:20:48;;;;;;;64.23;29.80;;;6.60;99.90;;;4.30;100.00;99490.53;10468964;28;20508;-80
2023/01/15 20:25:52;;;;;;;67.13;28.30;;;6.60;99.90;;;4.27;100.00;99500.53;10430632;28;20053;-80
2023/01/15 20:30:56;;;;;;;60.93;26.93;;;6.60;99.90;;;4.26;100.00;99506.78;10442345;28;20089;-79
2023/01/15 20:36:04;;;;;;;64.00;28.27;;;6.60;99.90;;;4.24;100.00;99521.84;10448786;28;20520;-79
2023/01/15 20:46:31;;;;;;;49.80;22.93;;;6.50;99.90;;;4.21;100.00;99522.16;10464863;28;20089;-79
2023/01/15 20:51:33;;;;;;;48.27;22.27;;;6.50;99.90;;;4.20;100.00;99526.59;10494645;28;20085;-80
2023/01/15 20:56:36;;;;;;;40.77;21.37;;;6.50;99.90;;;4.18;100.00;99517.16;10450458;28;20092;-79
2023/01/15 21:01:40;;;;;;;62.67;26.27;;;6.50;99.90;;;4.16;100.00;99514.69;10466350;28;20061;-80
2023/01/15 21:06:43;;;;;;;57.50;25.43;;;6.50;99.90;;;4.13;100.00;99514.97;10476083;28;20061;-80
2023/01/15 21:11:46;;;;;;;54.17;25.50;;;6.40;99.90;;;4.13;100.00;99508.88;10457393;28;20100;-79
2023/01/15 21:16:50;;;;;;;70.53;31.33;;;6.50;99.90;;;4.12;100.00;99507.22;10466930;28;20064;-78
2023/01/15 21:21:53;;;;;;;76.73;30.23;;;6.40;99.90;;;4.11;100.00;99506.41;10476810;28;20148;-79
2023/01/15 21:26:56;;;;;;;61.47;26.33;;;6.50;99.90;;;4.08;100.00;99513.72;10439688;28;20093;-79
2023/01/15 21:31:59;;;;;;;50.50;23.37;;;6.50;99.90;;;4.05;100.00;99503.50;10450047;28;20042;-78
2023/01/15 21:37:02;;;;;;;38.53;16.40;;;6.40;99.90;;;4.00;100.00;99515.28;10448391;28;20561;-79
2023/01/15 21:47:26;;;;;;;34.47;15.30;;;6.30;99.90;;;3.96;100.00;99499.97;10463162;28;20141;-78
2023/01/15 21:52:32;;;;;;;38.60;14.70;;;6.30;99.90;;;3.96;100.00;99499.97;10444716;28;20061;-79
2023/01/15 21:57:35;;;;;;;29.50;15.00;;;6.30;99.90;;;3.93;100.00;99493.16;10447680;28;20054;-79
2023/01/15 22:02:38;;;;;;;39.57;16.40;;;6.30;99.90;;;3.93;100.00;99495.78;10463380;28;20061;-79
2023/01/15 22:07:41;;;;;;;42.60;18.50;;;6.30;99.90;;;3.94;100.00;99494.81;10429311;28;20409;-79
2023/01/15 22:12:44;;;;;;;56.07;23.57;;;6.20;99.90;;;3.93;100.00;99485.28;10449228;28;20061;-79
2023/01/15 22:17:53;;;;;;;60.03;24.63;;;6.30;99.90;;;3.92;100.00;99473.09;10474762;28;20434;-79
2023/01/15 22:22:56;;;;;;;66.37;25.73;;;6.30;99.90;;;3.87;100.00;99491.09;10451074;28;20060;-79
2023/01/15 22:27:58;;;;;;;85.77;31.83;;;6.20;99.90;;;3.82;100.00;99489.88;10439855;28;20065;-79
2023/01/15 22:33:01;;;;;;;74.70;31.43;;;6.10;99.90;;;3.83;100.00;99476.59;10463558;28;20107;-79
2023/01/15 22:38:05;;;;;;;90.77;26.87;;;6.10;99.90;;;3.82;100.00;99467.03;10455409;28;20061;-79
2023/01/15 22:43:08;;;;;;;80.07;26.63;;;6.10;99.90;;;3.82;100.00;99469.66;10464570;28;20140;-79
2023/01/15 22:48:11;;;;;;;83.77;29.77;;;6.10;99.90;;;3.85;100.00;99473.84;10453643;28;20049;-79
2023/01/15 22:53:14;;;;;;;65.80;27.80;;;6.10;99.90;;;3.80;100.00;99476.88;10434069;28;20064;-79
2023/01/15 22:58:20;;;;;;;70.50;24.47;;;6.10;99.90;;;3.78;100.00;99472.72;10444112;28;20419;-79
2023/01/15 23:03:23;;;;;;;71.40;28.83;;;6.10;99.90;;;3.76;100.00;99467.63;10440553;28;20100;-79
2023/01/15 23:08:30;;;;;;;67.33;27.50;;;6.10;99.90;;;3.76;100.00;99486.00;10425269;28;20058;-79
2023/01/15 23:13:33;;;;;;;69.20;28.67;;;6.10;99.90;;;3.73;100.00;99484.50;10419039;28;20140;-79
2023/01/15 23:18:37;;;;;;;66.93;27.80;;;6.10;99.90;;;3.72;100.00;99471.53;10489917;28;20080;-79
2023/01/15 23:23:40;;;;;;;62.80;26.33;;;6.00;99.90;;;3.70;100.00;99461.13;10421387;28;20098;-79
2023/01/15 23:28:43;;;;;;;54.87;21.53;;;6.00;99.90;;;3.67;100.00;99461.41;10462001;28;20061;-79
2023/01/15 23:33:46;;;;;;;47.70;21.07;;;6.00;99.90;;;3.64;100.00;99452.97;10452250;28;20501;-79
2023/01/15 23:38:49;;;;;;;41.60;18.97;;;6.00;99.90;;;3.61;100.00;99433.09;10465624;28;20057;-79